sensor_id;sensor_type;location;lat;lon;timestamp;pressure;altitude;pressure_sealevel;temperature;humidity
51829;BME280;37881;48.024;8.774;2022-11-20T00:01:21;93404.06;;;-1.72;100.00
51829;BME280;37881;48.024;8.774;2022-11-20T00:03:50;93407.28;;;-1.67;100.00
51829;BME280;37881;48.024;8.774;2022-11-20T00:06:18;93411.75;;;-1.55;100.00
51829;BME280;37881;48.024;8.774;2022-11-20T00:08:45;93410.28;;;-1.52;100.00
51829;BME280;37881;48.024;8.774;2022-11-20T00:13:43;93413.91;;;-1.45;100.00
51829;BME280;37881;48.024;8.774;2022-11-20T00:16:11;93408.19;;;-1.24;100.00
51829;BME280;37881;48.024;8.774;2022-11-20T00:18:38;93402.53;;;-1.18;100.00
51829;BME280;37881;48.024;8.774;2022-11-20T00:21:16;93400.75;;;-1.11;100.00
51829;BME280;37881;48.024;8.774;2022-11-20T00:23:44;93399.38;;;-1.40;100.00
51829;BME280;37881;48.024;8.774;2022-11-20T00:26:13;93403.56;;;-1.23;100.00
51829;BME280;37881;48.024;8.774;2022-11-20T00:28:41;93403.00;;;-1.32;100.00
51829;BME280;37881;48.024;8.774;2022-11-20T00:31:13;93412.88;;;-1.21;100.00
51829;BME280;37881;48.024;8.774;2022-11-20T00:33:42;93411.94;;;-1.28;100.00
51829;BME280;37881;48.024;8.774;2022-11-20T00:36:17;93409.06;;;-1.55;100.00
51829;BME280;37881;48.024;8.774;2022-11-20T00:38:45;93408.09;;;-1.27;100.00
51829;BME280;37881;48.024;8.774;2022-11-20T00:41:14;93414.63;;;-1.28;100.00
51829;BME280;37881;48.024;8.774;2022-11-20T00:43:41;93418.09;;;-1.28;100.00
51829;BME280;37881;48.024;8.774;2022-11-20T00:46:12;93420.56;;;-1.38;100.00
51829;BME280;37881;48.024;8.774;2022-11-20T00:48:39;93418.78;;;-1.50;100.00
51829;BME280;37881;48.024;8.774;2022-11-20T00:51:06;93418.19;;;-1.59;100.00
51829;BME280;37881;48.024;8.774;2022-11-20T00:53:33;93423.47;;;-1.63;100.00
51829;BME280;37881;48.024;8.774;2022-11-20T00:56:02;93416.56;;;-1.64;100.00
51829;BME280;37881;48.024;8.774;2022-11-20T00:58:38;93428.19;;;-1.76;100.00
51829;BME280;37881;48.024;8.774;2022-11-20T01:01:09;93430.72;;;-1.83;100.00
51829;BME280;37881;48.024;8.774;2022-11-20T01:03:39;93425.41;;;-1.79;100.00
51829;BME280;37881;48.024;8.774;2022-11-20T01:08:36;93439.28;;;-1.77;100.00
51829;BME280;37881;48.024;8.774;2022-11-20T01:11:06;93437.91;;;-1.71;100.00
51829;BME280;37881;48.024;8.774;2022-11-20T01:13:33;93436.72;;;-1.90;100.00
51829;BME280;37881;48.024;8.774;2022-11-20T01:16:13;93433.63;;;-1.56;100.00
51829;BME280;37881;48.024;8.774;2022-11-20T01:18:42;93437.41;;;-1.42;100.00
51829;BME280;37881;48.024;8.774;2022-11-20T01:21:15;93442.84;;;-1.22;100.00
51829;BME280;37881;48.024;8.774;2022-11-20T01:23:43;93442.97;;;-1.34;100.00
51829;BME280;37881;48.024;8.774;2022-11-20T01:26:12;93444.13;;;-1.16;100.00
51829;BME280;37881;48.024;8.774;2022-11-20T01:28:40;93449.28;;;-1.07;100.00
51829;BME280;37881;48.024;8.774;2022-11-20T01:33:46;93443.56;;;-0.86;100.00
51829;BME280;37881;48.024;8.774;2022-11-20T01:36:14;93448.47;;;-0.72;100.00
51829;BME280;37881;48.024;8.774;2022-11-20T01:38:41;93445.19;;;-1.01;100.00
51829;BME280;37881;48.024;8.774;2022-11-20T01:41:10;93450.88;;;-1.06;100.00
51829;BME280;37881;48.024;8.774;2022-11-20T01:43:37;93441.09;;;-1.14;100.00
51829;BME280;37881;48.024;8.774;2022-11-20T01:51:42;93440.66;;;-0.77;100.00
51829;BME280;37881;48.024;8.774;2022-11-20T01:54:18;93447.97;;;-0.78;100.00
51829;BME280;37881;48.024;8.774;2022-11-20T01:56:48;93445.91;;;-0.65;100.00
51829;BME280;37881;48.024;8.774;2022-11-20T01:59:18;93439.22;;;-0.52;100.00
51829;BME280;37881;48.024;8.774;2022-11-20T02:01:46;93444.72;;;-0.45;100.00
51829;BME280;37881;48.024;8.774;2022-11-20T02:04:14;93446.38;;;-0.40;100.00
51829;BME280;37881;48.024;8.774;2022-11-20T02:07:08;93445.94;;;-0.42;100.00
51829;BME280;37881;48.024;8.774;2022-11-20T02:09:35;93448.66;;;-0.42;100.00
51829;BME280;37881;48.024;8.774;2022-11-20T02:12:02;93445.66;;;-0.37;100.00
51829;BME280;37881;48.024;8.774;2022-11-20T02:14:29;93443.03;;;-0.33;100.00
51829;BME280;37881;48.024;8.774;2022-11-20T02:16:56;93445.13;;;-0.23;100.00
51829;BME280;37881;48.024;8.774;2022-11-20T02:19:26;93437.03;;;-0.23;100.00
51829;BME280;37881;48.024;8.774;2022-11-20T02:22:05;93440.75;;;-0.08;100.00
51829;BME280;37881;48.024;8.774;2022-11-20T02:24:34;93437.69;;;-0.07;100.00
51829;BME280;37881;48.024;8.774;2022-11-20T02:27:09;93429.84;;;0.08;100.00
51829;BME280;37881;48.024;8.774;2022-11-20T02:29:52;93436.97;;;-0.27;100.00
51829;BME280;37881;48.024;8.774;2022-11-20T02:34:54;93440.28;;;-0.14;100.00
51829;BME280;37881;48.024;8.774;2022-11-20T02:37:21;93437.59;;;-0.14;100.00
51829;BME280;37881;48.024;8.774;2022-11-20T02:39:49;93428.25;;;-0.20;100.00
51829;BME280;37881;48.024;8.774;2022-11-20T02:42:17;93427.50;;;-0.17;100.00
51829;BME280;37881;48.024;8.774;2022-11-20T02:44:44;93437.75;;;-0.03;100.00
51829;BME280;37881;48.024;8.774;2022-11-20T02:47:11;93429.72;;;0.01;100.00
51829;BME280;37881;48.024;8.774;2022-11-20T02:49:37;93425.59;;;0.07;100.00
51829;BME280;37881;48.024;8.774;2022-11-20T02:52:05;93421.81;;;-0.12;100.00
51829;BME280;37881;48.024;8.774;2022-11-20T02:54:31;93417.19;;;-0.11;100.00
51829;BME280;37881;48.024;8.774;2022-11-20T02:56:58;93420.91;;;0.04;100.00
51829;BME280;37881;48.024;8.774;2022-11-20T02:59:24;93424.94;;;-0.10;100.00
51829;BME280;37881;48.024;8.774;2022-11-20T03:01:51;93421.00;;;-0.16;100.00
51829;BME280;37881;48.024;8.774;2022-11-20T03:04:18;93414.63;;;-0.27;100.00
51829;BME280;37881;48.024;8.774;2022-11-20T03:06:44;93420.91;;;-0.19;100.00
51829;BME280;37881;48.024;8.774;2022-11-20T03:09:11;93419.56;;;-0.10;100.00
51829;BME280;37881;48.024;8.774;2022-11-20T03:11:38;93424.22;;;-0.07;100.00
51829;BME280;37881;48.024;8.774;2022-11-20T03:14:05;93422.88;;;-0.16;100.00
51829;BME280;37881;48.024;8.774;2022-11-20T03:16:32;93426.19;;;-0.27;100.00
51829;BME280;37881;48.024;8.774;2022-11-20T03:18:59;93424.28;;;-0.26;100.00
51829;BME280;37881;48.024;8.774;2022-11-20T03:21:26;93418.81;;;-0.30;100.00
51829;BME280;37881;48.024;8.774;2022-11-20T03:23:53;93412.16;;;-0.36;100.00
51829;BME280;37881;48.024;8.774;2022-11-20T03:26:23;93415.06;;;-0.68;100.00
51829;BME280;37881;48.024;8.774;2022-11-20T03:28:52;93411.28;;;-0.63;100.00
51829;BME280;37881;48.024;8.774;2022-11-20T03:31:22;93416.00;;;-0.56;100.00
51829;BME280;37881;48.024;8.774;2022-11-20T03:33:49;93415.47;;;-0.46;100.00
51829;BME280;37881;48.024;8.774;2022-11-20T03:36:17;93413.97;;;-0.44;100.00
51829;BME280;37881;48.024;8.774;2022-11-20T03:38:45;93422.47;;;-0.42;100.00
51829;BME280;37881;48.024;8.774;2022-11-20T03:41:17;93418.63;;;-0.41;100.00
51829;BME280;37881;48.024;8.774;2022-11-20T03:43:55;93417.13;;;-0.38;100.00
51829;BME280;37881;48.024;8.774;2022-11-20T03:46:23;93420.25;;;-0.36;100.00
51829;BME280;37881;48.024;8.774;2022-11-20T03:48:50;93423.78;;;-0.32;100.00
51829;BME280;37881;48.024;8.774;2022-11-20T03:51:25;93427.69;;;-0.29;100.00
51829;BME280;37881;48.024;8.774;2022-11-20T03:53:54;93422.22;;;-0.33;100.00
51829;BME280;37881;48.024;8.774;2022-11-20T03:56:26;93426.06;;;-0.34;100.00
51829;BME280;37881;48.024;8.774;2022-11-20T03:58:53;93418.63;;;-0.41;100.00
51829;BME280;37881;48.024;8.774;2022-11-20T04:01:23;93429.78;;;-0.42;100.00
51829;BME280;37881;48.024;8.774;2022-11-20T04:03:52;93423.72;;;-0.35;100.00
51829;BME280;37881;48.024;8.774;2022-11-20T04:06:25;93421.81;;;-0.35;100.00
51829;BME280;37881;48.024;8.774;2022-11-20T04:08:57;93424.44;;;-0.38;100.00
51829;BME280;37881;48.024;8.774;2022-11-20T04:11:29;93425.16;;;-0.42;100.00
51829;BME280;37881;48.024;8.774;2022-11-20T04:13:58;93417.56;;;-0.36;100.00
51829;BME280;37881;48.024;8.774;2022-11-20T04:16:26;93426.09;;;-0.30;100.00
51829;BME280;37881;48.024;8.774;2022-11-20T04:18:56;93426.50;;;-0.32;100.00
51829;BME280;37881;48.024;8.774;2022-11-20T04:21:24;93421.72;;;-0.38;100.00
51829;BME280;37881;48.024;8.774;2022-11-20T04:23:52;93419.00;;;-0.42;100.00
51829;BME280;37881;48.024;8.774;2022-11-20T04:26:23;93420.00;;;-0.50;100.00
51829;BME280;37881;48.024;8.774;2022-11-20T04:28:50;93432.69;;;-0.51;100.00
51829;BME280;37881;48.024;8.774;2022-11-20T04:31:22;93428.78;;;-0.53;100.00
51829;BME280;37881;48.024;8.774;2022-11-20T04:33:49;93431.97;;;-0.48;100.00
51829;BME280;37881;48.024;8.774;2022-11-20T04:36:18;93439.41;;;-0.41;100.00
51829;BME280;37881;48.024;8.774;2022-11-20T04:38:46;93434.44;;;-0.39;100.00
51829;BME280;37881;48.024;8.774;2022-11-20T04:41:23;93433.91;;;-0.48;100.00
51829;BME280;37881;48.024;8.774;2022-11-20T04:43:52;93436.22;;;-0.47;100.00
51829;BME280;37881;48.024;8.774;2022-11-20T04:46:20;93437.03;;;-0.46;100.00
51829;BME280;37881;48.024;8.774;2022-11-20T04:48:47;93434.75;;;-0.44;100.00
51829;BME280;37881;48.024;8.774;2022-11-20T04:51:14;93430.06;;;-0.47;100.00
51829;BME280;37881;48.024;8.774;2022-11-20T04:53:41;93429.34;;;-0.44;100.00
51829;BME280;37881;48.024;8.774;2022-11-20T04:56:09;93433.25;;;-0.42;100.00
51829;BME280;37881;48.024;8.774;2022-11-20T04:58:37;93434.50;;;-0.35;100.00
51829;BME280;37881;48.024;8.774;2022-11-20T05:01:15;93433.00;;;-0.33;100.00
51829;BME280;37881;48.024;8.774;2022-11-20T05:03:44;93436.75;;;-0.18;100.00
51829;BME280;37881;48.024;8.774;2022-11-20T05:06:13;93434.88;;;-0.14;100.00
51829;BME280;37881;48.024;8.774;2022-11-20T05:08:41;93430.13;;;-0.21;100.00
51829;BME280;37881;48.024;8.774;2022-11-20T05:11:10;93433.03;;;-0.10;100.00
51829;BME280;37881;48.024;8.774;2022-11-20T05:13:38;93434.16;;;-0.11;100.00
51829;BME280;37881;48.024;8.774;2022-11-20T05:16:07;93429.66;;;-0.03;100.00
51829;BME280;37881;48.024;8.774;2022-11-20T05:18:35;93429.72;;;0.01;100.00
51829;BME280;37881;48.024;8.774;2022-11-20T05:21:02;93423.19;;;0.02;100.00
51829;BME280;37881;48.024;8.774;2022-11-20T05:23:29;93429.31;;;-0.02;100.00
51829;BME280;37881;48.024;8.774;2022-11-20T05:25:57;93430.09;;;-0.01;100.00
51829;BME280;37881;48.024;8.774;2022-11-20T05:28:27;93426.31;;;0.04;100.00
51829;BME280;37881;48.024;8.774;2022-11-20T05:30:54;93423.97;;;0.02;100.00
51829;BME280;37881;48.024;8.774;2022-11-20T05:33:21;93428.47;;;-0.06;100.00
51829;BME280;37881;48.024;8.774;2022-11-20T05:35:48;93431.69;;;0.04;100.00
51829;BME280;37881;48.024;8.774;2022-11-20T05:38:15;93425.88;;;0.02;100.00
51829;BME280;37881;48.024;8.774;2022-11-20T05:40:42;93422.66;;;-0.08;100.00
51829;BME280;37881;48.024;8.774;2022-11-20T05:43:09;93419.56;;;-0.10;100.00
51829;BME280;37881;48.024;8.774;2022-11-20T05:45:35;93409.41;;;-0.16;100.00
51829;BME280;37881;48.024;8.774;2022-11-20T05:48:02;93413.31;;;-0.14;100.00
51829;BME280;37881;48.024;8.774;2022-11-20T05:50:29;93408.63;;;-0.17;100.00
51829;BME280;37881;48.024;8.774;2022-11-20T05:53:00;93406.25;;;-0.22;100.00
51829;BME280;37881;48.024;8.774;2022-11-20T05:55:27;93413.13;;;-0.25;100.00
51829;BME280;37881;48.024;8.774;2022-11-20T05:57:54;93413.78;;;-0.31;100.00
51829;BME280;37881;48.024;8.774;2022-11-20T06:00:21;93418.94;;;-0.46;100.00
51829;BME280;37881;48.024;8.774;2022-11-20T06:02:48;93427.28;;;-0.51;100.00
51829;BME280;37881;48.024;8.774;2022-11-20T06:05:15;93423.06;;;-0.52;100.00
51829;BME280;37881;48.024;8.774;2022-11-20T06:07:42;93427.59;;;-0.56;100.00
51829;BME280;37881;48.024;8.774;2022-11-20T06:10:09;93420.88;;;-0.66;100.00
51829;BME280;37881;48.024;8.774;2022-11-20T06:12:36;93417.81;;;-0.64;100.00
51829;BME280;37881;48.024;8.774;2022-11-20T06:15:04;93427.75;;;-0.68;100.00
51829;BME280;37881;48.024;8.774;2022-11-20T06:17:31;93432.84;;;-0.63;100.00
51829;BME280;37881;48.024;8.774;2022-11-20T06:19:58;93429.88;;;-0.58;100.00
51829;BME280;37881;48.024;8.774;2022-11-20T06:22:24;93429.56;;;-0.53;100.00
51829;BME280;37881;48.024;8.774;2022-11-20T06:24:51;93424.25;;;-0.49;100.00
51829;BME280;37881;48.024;8.774;2022-11-20T06:27:18;93421.97;;;-0.47;100.00
51829;BME280;37881;48.024;8.774;2022-11-20T06:29:44;93421.91;;;-0.51;100.00
51829;BME280;37881;48.024;8.774;2022-11-20T06:32:11;93433.47;;;-0.50;100.00
51829;BME280;37881;48.024;8.774;2022-11-20T06:34:38;93431.00;;;-0.59;100.00
51829;BME280;37881;48.024;8.774;2022-11-20T06:37:05;93437.66;;;-0.53;100.00
51829;BME280;37881;48.024;8.774;2022-11-20T06:39:31;93438.44;;;-0.52;100.00
51829;BME280;37881;48.024;8.774;2022-11-20T06:41:58;93442.75;;;-0.48;100.00
51829;BME280;37881;48.024;8.774;2022-11-20T06:44:25;93451.13;;;-0.53;100.00
51829;BME280;37881;48.024;8.774;2022-11-20T06:46:52;93454.66;;;-0.49;100.00
51829;BME280;37881;48.024;8.774;2022-11-20T06:49:18;93464.88;;;-0.38;100.00
51829;BME280;37881;48.024;8.774;2022-11-20T06:51:46;93463.75;;;-0.37;100.00
51829;BME280;37881;48.024;8.774;2022-11-20T06:54:12;93464.28;;;-0.28;100.00
51829;BME280;37881;48.024;8.774;2022-11-20T06:56:39;93464.34;;;-0.25;100.00
51829;BME280;37881;48.024;8.774;2022-11-20T06:59:06;93457.25;;;-0.13;100.00
51829;BME280;37881;48.024;8.774;2022-11-20T07:01:33;93456.25;;;-0.25;100.00
51829;BME280;37881;48.024;8.774;2022-11-20T07:04:01;93462.16;;;-0.19;100.00
51829;BME280;37881;48.024;8.774;2022-11-20T07:06:29;93467.25;;;-0.14;100.00
51829;BME280;37881;48.024;8.774;2022-11-20T07:08:57;93471.13;;;0.12;100.00
51829;BME280;37881;48.024;8.774;2022-11-20T07:11:23;93473.97;;;0.19;100.00
51829;BME280;37881;48.024;8.774;2022-11-20T07:13:50;93467.19;;;0.29;100.00
51829;BME280;37881;48.024;8.774;2022-11-20T07:16:17;93462.97;;;0.31;100.00
51829;BME280;37881;48.024;8.774;2022-11-20T07:18:44;93467.13;;;0.25;100.00
51829;BME280;37881;48.024;8.774;2022-11-20T07:21:16;93476.69;;;0.46;100.00
51829;BME280;37881;48.024;8.774;2022-11-20T07:23:43;93473.84;;;0.62;100.00
51829;BME280;37881;48.024;8.774;2022-11-20T07:26:10;93473.19;;;0.68;100.00
51829;BME280;37881;48.024;8.774;2022-11-20T07:28:37;93471.47;;;0.56;100.00
51829;BME280;37881;48.024;8.774;2022-11-20T07:31:05;93468.78;;;0.56;100.00
51829;BME280;37881;48.024;8.774;2022-11-20T07:33:33;93467.94;;;0.79;100.00
51829;BME280;37881;48.024;8.774;2022-11-20T07:36:00;93468.78;;;0.83;100.00
51829;BME280;37881;48.024;8.774;2022-11-20T07:38:26;93466.53;;;0.89;100.00
51829;BME280;37881;48.024;8.774;2022-11-20T07:40:57;93459.88;;;1.09;100.00
51829;BME280;37881;48.024;8.774;2022-11-20T07:43:24;93464.34;;;0.98;100.00
51829;BME280;37881;48.024;8.774;2022-11-20T07:45:51;93469.50;;;1.07;100.00
51829;BME280;37881;48.024;8.774;2022-11-20T07:48:18;93468.66;;;1.33;100.00
51829;BME280;37881;48.024;8.774;2022-11-20T07:50:45;93475.72;;;1.45;100.00
51829;BME280;37881;48.024;8.774;2022-11-20T07:53:12;93465.91;;;2.42;100.00
51829;BME280;37881;48.024;8.774;2022-11-20T07:55:40;93463.28;;;4.71;92.29
51829;BME280;37881;48.024;8.774;2022-11-20T07:58:06;93461.78;;;3.21;91.82
51829;BME280;37881;48.024;8.774;2022-11-20T08:00:33;93469.81;;;2.51;95.42
51829;BME280;37881;48.024;8.774;2022-11-20T08:03:05;93473.78;;;2.61;95.73
51829;BME280;37881;48.024;8.774;2022-11-20T08:05:32;93479.84;;;2.99;96.30
51829;BME280;37881;48.024;8.774;2022-11-20T08:07:59;93478.09;;;2.69;96.49
51829;BME280;37881;48.024;8.774;2022-11-20T08:10:26;93480.75;;;2.62;97.10
51829;BME280;37881;48.024;8.774;2022-11-20T08:12:53;93481.75;;;2.43;98.15
51829;BME280;37881;48.024;8.774;2022-11-20T08:15:39;93483.78;;;2.53;98.86
51829;BME280;37881;48.024;8.774;2022-11-20T08:18:09;93483.69;;;2.43;99.40
51829;BME280;37881;48.024;8.774;2022-11-20T08:20:57;93492.72;;;2.61;99.24
51829;BME280;37881;48.024;8.774;2022-11-20T08:23:23;93492.59;;;2.95;99.14
51829;BME280;37881;48.024;8.774;2022-11-20T08:25:50;93492.50;;;3.47;96.54
51829;BME280;37881;48.024;8.774;2022-11-20T08:28:17;93497.28;;;3.78;94.37
51829;BME280;37881;48.024;8.774;2022-11-20T08:30:48;93489.91;;;3.79;93.46
51829;BME280;37881;48.024;8.774;2022-11-20T08:33:16;93484.94;;;3.95;92.02
51829;BME280;37881;48.024;8.774;2022-11-20T08:35:44;93492.66;;;3.86;93.92
51829;BME280;37881;48.024;8.774;2022-11-20T08:38:10;93484.75;;;6.00;85.21
51829;BME280;37881;48.024;8.774;2022-11-20T08:40:37;93486.16;;;5.24;86.02
51829;BME280;37881;48.024;8.774;2022-11-20T08:43:04;93481.91;;;4.36;90.39
51829;BME280;37881;48.024;8.774;2022-11-20T08:45:31;93482.72;;;4.73;90.03
51829;BME280;37881;48.024;8.774;2022-11-20T08:48:04;93484.97;;;5.21;88.50
51829;BME280;37881;48.024;8.774;2022-11-20T08:50:31;93470.47;;;7.38;78.65
51829;BME280;37881;48.024;8.774;2022-11-20T08:53:05;93478.44;;;6.73;79.34
51829;BME280;37881;48.024;8.774;2022-11-20T08:55:32;93488.97;;;6.71;80.12
51829;BME280;37881;48.024;8.774;2022-11-20T08:58:05;93488.63;;;6.66;80.53
51829;BME280;37881;48.024;8.774;2022-11-20T09:00:33;93495.03;;;6.37;81.05
51829;BME280;37881;48.024;8.774;2022-11-20T09:03:00;93491.91;;;6.43;79.55
51829;BME280;37881;48.024;8.774;2022-11-20T09:05:27;93490.94;;;7.92;73.48
51829;BME280;37881;48.024;8.774;2022-11-20T09:07:58;93496.31;;;6.22;78.74
51829;BME280;37881;48.024;8.774;2022-11-20T09:10:28;93497.00;;;5.34;84.34
51829;BME280;37881;48.024;8.774;2022-11-20T09:12:55;93497.03;;;5.24;85.78
51829;BME280;37881;48.024;8.774;2022-11-20T09:15:23;93495.84;;;5.32;84.97
51829;BME280;37881;48.024;8.774;2022-11-20T09:18:00;93489.63;;;5.28;86.58
51829;BME280;37881;48.024;8.774;2022-11-20T09:20:29;93488.09;;;5.09;87.67
51829;BME280;37881;48.024;8.774;2022-11-20T09:22:56;93488.91;;;5.09;87.96
51829;BME280;37881;48.024;8.774;2022-11-20T09:25:23;93486.91;;;5.28;87.27
51829;BME280;37881;48.024;8.774;2022-11-20T09:27:57;93497.03;;;5.27;87.40
51829;BME280;37881;48.024;8.774;2022-11-20T09:30:25;93493.13;;;5.21;86.00
51829;BME280;37881;48.024;8.774;2022-11-20T09:32:52;93492.75;;;5.19;86.37
51829;BME280;37881;48.024;8.774;2022-11-20T09:35:19;93493.56;;;4.91;87.64
51829;BME280;37881;48.024;8.774;2022-11-20T09:37:45;93494.34;;;4.88;88.42
51829;BME280;37881;48.024;8.774;2022-11-20T09:40:22;93504.84;;;4.75;87.25
51829;BME280;37881;48.024;8.774;2022-11-20T09:43:49;93507.53;;;4.64;88.28
51829;BME280;37881;48.024;8.774;2022-11-20T09:48:53;93512.22;;;4.85;86.66
51829;BME280;37881;48.024;8.774;2022-11-20T09:51:43;93517.25;;;4.72;87.10
51829;BME280;37881;48.024;8.774;2022-11-20T09:54:21;93510.66;;;4.80;86.37
51829;BME280;37881;48.024;8.774;2022-11-20T09:56:54;93510.63;;;4.45;88.02
51829;BME280;37881;48.024;8.774;2022-11-20T09:59:42;93517.22;;;4.44;88.98
51829;BME280;37881;48.024;8.774;2022-11-20T10:04:53;93518.03;;;4.62;88.38
51829;BME280;37881;48.024;8.774;2022-11-20T10:07:39;93511.81;;;4.62;89.56
51829;BME280;37881;48.024;8.774;2022-11-20T10:19:11;93511.81;;;4.72;88.93
51829;BME280;37881;48.024;8.774;2022-11-20T10:22:07;93513.78;;;4.75;87.94
51829;BME280;37881;48.024;8.774;2022-11-20T10:24:42;93509.88;;;4.80;88.51
51829;BME280;37881;48.024;8.774;2022-11-20T10:30:13;93505.59;;;5.04;86.50
51829;BME280;37881;48.024;8.774;2022-11-20T10:32:43;93502.50;;;5.02;85.53
51829;BME280;37881;48.024;8.774;2022-11-20T10:37:53;93504.81;;;5.11;84.47
51829;BME280;37881;48.024;8.774;2022-11-20T10:40:29;93506.00;;;4.85;85.06
51829;BME280;37881;48.024;8.774;2022-11-20T10:43:19;93513.00;;;4.68;85.70
51829;BME280;37881;48.024;8.774;2022-11-20T10:45:53;93508.34;;;4.90;84.80
51829;BME280;37881;48.024;8.774;2022-11-20T10:48:28;93509.88;;;4.69;86.41
51829;BME280;37881;48.024;8.774;2022-11-20T10:51:12;93505.63;;;4.79;85.38
51829;BME280;37881;48.024;8.774;2022-11-20T10:53:47;93503.66;;;4.94;85.75
51829;BME280;37881;48.024;8.774;2022-11-20T10:56:38;93503.66;;;4.72;84.94
51829;BME280;37881;48.024;8.774;2022-11-20T10:59:32;93506.00;;;4.70;86.94
51829;BME280;37881;48.024;8.774;2022-11-20T11:02:12;93497.44;;;4.83;85.93
51829;BME280;37881;48.024;8.774;2022-11-20T11:04:45;93507.13;;;4.37;89.34
51829;BME280;37881;48.024;8.774;2022-11-20T11:07:16;93504.84;;;4.75;87.62
51829;BME280;37881;48.024;8.774;2022-11-20T11:09:50;93500.56;;;4.92;86.45
51829;BME280;37881;48.024;8.774;2022-11-20T11:12:17;93499.78;;;4.70;87.61
51829;BME280;37881;48.024;8.774;2022-11-20T11:14:50;93492.03;;;4.72;86.80
51829;BME280;37881;48.024;8.774;2022-11-20T11:17:23;93494.34;;;4.70;87.87
51829;BME280;37881;48.024;8.774;2022-11-20T11:22:34;93488.50;;;4.96;87.10
51829;BME280;37881;48.024;8.774;2022-11-20T11:25:01;93481.16;;;4.93;86.92
51829;BME280;37881;48.024;8.774;2022-11-20T11:27:28;93483.47;;;4.91;86.73
51829;BME280;37881;48.024;8.774;2022-11-20T11:30:16;93483.44;;;5.16;85.81
51829;BME280;37881;48.024;8.774;2022-11-20T11:32:44;93477.59;;;5.14;85.72
51829;BME280;37881;48.024;8.774;2022-11-20T11:35:26;93475.25;;;5.27;83.57
51829;BME280;37881;48.024;8.774;2022-11-20T11:38:01;93476.44;;;5.08;84.21
51829;BME280;37881;48.024;8.774;2022-11-20T11:40:31;93476.84;;;4.96;84.38
51829;BME280;37881;48.024;8.774;2022-11-20T11:43:02;93462.47;;;5.10;83.80
51829;BME280;37881;48.024;8.774;2022-11-20T11:45:30;93462.06;;;5.22;83.89
51829;BME280;37881;48.024;8.774;2022-11-20T11:47:58;93463.03;;;5.75;80.99
51829;BME280;37881;48.024;8.774;2022-11-20T11:50:28;93458.28;;;6.04;81.37
51829;BME280;37881;48.024;8.774;2022-11-20T11:55:43;93444.88;;;7.59;70.50
51829;BME280;37881;48.024;8.774;2022-11-20T12:03:37;93431.59;;;7.62;72.55
51829;BME280;37881;48.024;8.774;2022-11-20T12:06:11;93428.03;;;7.65;72.15
51829;BME280;37881;48.024;8.774;2022-11-20T12:09:01;93421.00;;;7.33;72.97
51829;BME280;37881;48.024;8.774;2022-11-20T12:11:37;93419.97;;;7.85;72.60
51829;BME280;37881;48.024;8.774;2022-11-20T12:14:24;93429.28;;;7.22;74.07
51829;BME280;37881;48.024;8.774;2022-11-20T12:16:54;93414.78;;;6.46;73.90
51829;BME280;37881;48.024;8.774;2022-11-20T12:19:23;93421.88;;;6.81;74.46
51829;BME280;37881;48.024;8.774;2022-11-20T12:27:55;93410.25;;;6.77;76.26
51829;BME280;37881;48.024;8.774;2022-11-20T12:30:25;93416.44;;;6.81;77.54
51829;BME280;37881;48.024;8.774;2022-11-20T12:38:58;93415.44;;;6.05;79.15
51829;BME280;37881;48.024;8.774;2022-11-20T12:41:46;93413.00;;;6.21;80.11
51829;BME280;37881;48.024;8.774;2022-11-20T12:47:51;93409.16;;;6.64;79.26
51829;BME280;37881;48.024;8.774;2022-11-20T12:53:51;93409.81;;;6.33;80.22
51829;BME280;37881;48.024;8.774;2022-11-20T13:02:14;93401.97;;;6.39;78.80
51829;BME280;37881;48.024;8.774;2022-11-20T13:08:00;93407.13;;;5.59;81.84
51829;BME280;37881;48.024;8.774;2022-11-20T13:10:45;93406.50;;;5.19;80.52
51829;BME280;37881;48.024;8.774;2022-11-20T13:16:45;93394.66;;;5.66;79.10
51829;BME280;37881;48.024;8.774;2022-11-20T13:19:13;93396.00;;;5.18;78.70
51829;BME280;37881;48.024;8.774;2022-11-20T13:21:49;93403.81;;;5.05;78.79
51829;BME280;37881;48.024;8.774;2022-11-20T13:27:16;93397.91;;;5.32;78.39
51829;BME280;37881;48.024;8.774;2022-11-20T13:29:46;93398.19;;;5.55;77.01
51829;BME280;37881;48.024;8.774;2022-11-20T13:34:51;93398.13;;;5.66;75.85
51829;BME280;37881;48.024;8.774;2022-11-20T13:37:34;93399.72;;;5.56;76.49
51829;BME280;37881;48.024;8.774;2022-11-20T13:40:11;93392.09;;;5.26;77.21
51829;BME280;37881;48.024;8.774;2022-11-20T13:42:54;93395.88;;;5.47;78.72
51829;BME280;37881;48.024;8.774;2022-11-20T13:45:24;93387.66;;;5.61;76.65
51829;BME280;37881;48.024;8.774;2022-11-20T13:47:53;93376.34;;;5.66;77.14
51829;BME280;37881;48.024;8.774;2022-11-20T13:50:37;93378.41;;;5.44;75.34
51829;BME280;37881;48.024;8.774;2022-11-20T13:56:17;93368.03;;;5.17;75.54
51829;BME280;37881;48.024;8.774;2022-11-20T14:01:28;93359.81;;;5.35;76.48
51829;BME280;37881;48.024;8.774;2022-11-20T14:03:58;93342.09;;;5.72;76.76
51829;BME280;37881;48.024;8.774;2022-11-20T14:06:38;93344.13;;;5.57;74.80
51829;BME280;37881;48.024;8.774;2022-11-20T14:09:25;93346.91;;;5.47;73.68
51829;BME280;37881;48.024;8.774;2022-11-20T14:11:52;93351.22;;;5.40;73.98
51829;BME280;37881;48.024;8.774;2022-11-20T14:14:21;93348.13;;;5.35;74.31
51829;BME280;37881;48.024;8.774;2022-11-20T14:16:51;93339.25;;;5.27;74.72
51829;BME280;37881;48.024;8.774;2022-11-20T14:22:14;93341.66;;;5.07;75.76
51829;BME280;37881;48.024;8.774;2022-11-20T14:24:43;93350.13;;;5.27;74.43
51829;BME280;37881;48.024;8.774;2022-11-20T14:27:16;93349.75;;;5.18;74.39
51829;BME280;37881;48.024;8.774;2022-11-20T14:29:45;93354.38;;;5.28;73.98
51829;BME280;37881;48.024;8.774;2022-11-20T14:32:16;93352.84;;;5.27;74.44
51829;BME280;37881;48.024;8.774;2022-11-20T14:34:45;93349.38;;;5.12;75.30
51829;BME280;37881;48.024;8.774;2022-11-20T14:37:18;93343.13;;;5.19;73.76
51829;BME280;37881;48.024;8.774;2022-11-20T14:39:51;93348.28;;;4.95;74.72
51829;BME280;37881;48.024;8.774;2022-11-20T14:42:26;93342.47;;;4.90;74.45
51829;BME280;37881;48.024;8.774;2022-11-20T14:44:58;93325.78;;;4.88;74.34
51829;BME280;37881;48.024;8.774;2022-11-20T14:47:28;93325.00;;;4.87;74.72
51829;BME280;37881;48.024;8.774;2022-11-20T14:49:57;93314.91;;;4.80;76.20